Aviation Digital Data Service (ADDS)

Output produced by METARs form (1431 UTC 24 July 2017)
found at http://www.aviationweather.gov/adds/metars/
 
SEGU 241400Z 22008KT 9999 FEW010 SCT023 OVC100 23/19 Q1012 NOSIG RMK A2988
SEGU 231630Z 2318/2418 14005KT 9999 SCT020 SCT0100 
     FM240000 21010KT 9999 FEW020 
     FM241200 24004KT 9999 BKN020 TX30/2319Z TN22/2411Z 
       
SEMT 241400Z 22005KT 9999 OVC023 22/20 Q1012 RMK A2991
SEMT 231630Z 2318/2418 19010KT 9999 SCT023 
     FM240300 19005KT 9999 BKN020 
     FM241200 21010KT 9999 SCT030 TX28/2320Z TN22/2410Z